Naples Municipal Airport Naples US
ICAO: KAPF
IATA: APF
Category: Medium
Scheduled Services: No

Elevation: 8 ft
TransAlt. 18000 ft.

Airport Communications:
FORT MYERS APP/DEP:119.75
ATIS:134.225
CLNC DEL:118
CTAF:128.5
GND:121.6
MIAMI RDO:123.6
TWR:128.5

KAPF Zoom In..

Runways:

(A) RW 05 length 6600 ft width 150 ft
---- / hdg 47

(B) RW 14 length 5000 ft width 100 ft
---- / hdg 137

(C) RW 23 length 6600 ft width 150 ft
---- / hdg 227

(D) RW 32 length 5000 ft width 100 ft
---- / hdg 317

Location; KAPF
Day. 21 / Time. 14.53 Zulu
* Altimeter: 30.05
* Temperature: 27° c. 80.6°f.
* Wind from: 120° Speed 11 kn.
Dewpoint: 24° c.
Visibility: 10 Statute Miles.
Clouds: Scattered 1600 ft.
Clouds: Broken 6000 ft.

KAPF 211453Z 12011KT 10SM SCT016 BKN060 27/24 A3005 RMK AO2 SLP175 T02720239 51011


Wind From 120°
Speed 11 kn.

 
 
jpsmedia.com for Web Design SOUNDCLOUD worldairports.se 2018   terms of use